Thursday, January 18, 2018, 11:01 PM EST
Back to Local

KVSF, Hartness State Airport

Location: Perkinsville, VT, United States Lat: 43.35
Local Time: 11:01 PM EST ( 4:01 GMT) Lon: -72.517
Time Zone: US/Eastern Elev: 577 ft

Show me the last for .
Show Decoded

2018-01-18 21:54 METAR KVSF 190254Z AUTO 28004KT 10SM OVC034 M05/M09 A2996 RMK AO2 SLP156
                 T10501089 53012 =
2018-01-18 20:54 METAR KVSF 190154Z AUTO 30009KT 10SM OVC034 M04/M09 A2994 RMK AO2 SLP149
                 T10441089 =
2018-01-18 19:54 METAR KVSF 190054Z AUTO 31005KT 10SM OVC036 M05/M09 A2992 RMK AO2 SLP145
                 T10501094 =
2018-01-18 18:54 METAR KVSF 182354Z AUTO 31008KT 270V350 10SM OVC036 M05/M09 A2992 RMK AO2 SLP146
                 T10501094 11028 21050 53010 =
2018-01-18 17:54 METAR KVSF 182254Z AUTO 29006KT 10SM OVC037 M05/M09 A2991 RMK AO2 SLP141
                 T10501094 =
2018-01-18 16:54 METAR KVSF 182154Z AUTO 29007KT 10SM OVC039 M05/M09 A2990 RMK AO2 SLP137
                 T10501094 =
2018-01-18 15:54 METAR KVSF 182054Z AUTO 29008KT 8SM OVC036 M04/M09 A2989 RMK AO2 SLP134
                 T10391094 55005 =
2018-01-18 14:54 METAR KVSF 181954Z AUTO VRB04G14KT 10SM OVC031 M03/M09 A2989 RMK AO2 SLP132
                 T10331094 =
2018-01-18 13:54 METAR KVSF 181854Z AUTO 30008KT 260V340 10SM FEW028 M04/M09 A2989 RMK AO2 SLP133
                 T10391094 =
2018-01-18 12:54 METAR KVSF 181754Z AUTO 31011KT 10SM SCT029 M04/M09 A2991 RMK AO2 SLP139 60000
                 T10391094 11039 21161 56020 =
2018-01-18 12:52 METAR KVSF 181752Z AUTO 31009KT 10SM BKN029 M04/M09 A2991 RMK AO2 =
2018-01-18 11:54 METAR KVSF 181654Z AUTO VRB04KT 10SM BKN031 M04/M10 A2994 RMK AO2 UPB09E33
                 SLP149 P0000 T10441100 =
2018-01-18 10:54 METAR KVSF 181554Z AUTO 33010G17KT 8SM OVC026 M06/M10 A2997 RMK AO2 SLP159
                 T10611100 =
2018-01-18 09:54 METAR KVSF 181454Z AUTO 00000KT 8SM OVC024 M11/M11 A2999 RMK AO2 SLP166 60000
                 T11061111 55002 =
2018-01-18 08:54 METAR KVSF 181354Z AUTO 15003KT 9SM OVC024 M13/M14 A2997 RMK AO2 SLP161
                 T11281139 =
2018-01-18 07:54 METAR KVSF 181254Z AUTO VRB04KT 8SM OVC021 M14/M15 A2998 RMK AO2 SNB12E29 SLP164
                 P0000 T11391150 =
2018-01-18 07:01 METAR KVSF 181201Z AUTO 00000KT 8SM BKN020 M15/M17 A2999 RMK AO2 T11501167 =
2018-01-18 06:54 METAR KVSF 181154Z AUTO 00000KT 9SM SCT018 M16/M18 A2999 RMK AO2 SLP169 70011
                 I6000 T11611178 11100 21161 56004 =
2018-01-18 05:54 METAR KVSF 181054Z AUTO 00000KT 10SM CLR M15/M17 A3000 RMK AO2 SLP169 I1000
                 T11501167 =
2018-01-18 04:54 METAR KVSF 180954Z AUTO 00000KT 8SM CLR M14/M16 A3000 RMK AO2 SLP170 I1000
                 T11441156 =
2018-01-18 03:54 METAR KVSF 180854Z AUTO 33003KT 9SM CLR M14/M15 A3001 RMK AO2 SLP172 I1000 I3000
                 T11391150 56013 =
2018-01-18 02:54 METAR KVSF 180754Z AUTO 00000KT 9SM CLR M13/M14 A3001 RMK AO2 SLP175 I1000
                 T11331139 =
2018-01-18 01:54 METAR KVSF 180654Z AUTO 00000KT 9SM CLR M12/M13 A3002 RMK AO2 SLP177 I1000
                 T11171128 =
2018-01-18 00:54 METAR KVSF 180554Z AUTO 00000KT 6SM BR FEW028 M11/M11 A3004 RMK AO2 SLP184 60000
                 I1000 I6000 T11061111 11028 21106 58012 =
2018-01-17 23:54 METAR KVSF 180454Z AUTO 00000KT 5SM BR FEW029 M09/M09 A3006 RMK AO2 SLP191
                 T10891094 410171094 =
2018-01-17 23:50 METAR KVSF 180450Z AUTO 00000KT 6SM BR FEW021 SCT029 M09/M09 A3007 RMK AO2 =
2018-01-17 23:40 METAR KVSF 180440Z AUTO 00000KT 10SM FEW018 FEW023 BKN029 M07/M08 A3007 RMK AO2
                 T10721083 =
2018-01-17 23:33 METAR KVSF 180433Z AUTO 00000KT 10SM FEW020 SCT029 M07/M09 A3008 RMK AO2
                 T10721089 =

Support USWX by starting your Amazon purchase here.